sensor_id;sensor_type;location;lat;lon;timestamp;temperature;humidity
65864;SHT30;52639;51.180;20.460;2023-08-21T00:03:32;17.32;89.06
65864;SHT30;52639;51.180;20.460;2023-08-21T00:07:36;17.30;89.31
65864;SHT30;52639;51.180;20.460;2023-08-21T00:11:39;17.27;89.40
65864;SHT30;52639;51.180;20.460;2023-08-21T00:15:42;17.20;89.37
65864;SHT30;52639;51.180;20.460;2023-08-21T00:19:44;17.19;89.36
65864;SHT30;52639;51.180;20.460;2023-08-21T00:23:49;17.13;89.36
65864;SHT30;52639;51.180;20.460;2023-08-21T00:27:51;17.11;89.45
65864;SHT30;52639;51.180;20.460;2023-08-21T00:31:54;17.06;89.47
65864;SHT30;52639;51.180;20.460;2023-08-21T00:35:57;17.06;89.46
65864;SHT30;52639;51.180;20.460;2023-08-21T00:40:01;16.96;89.74
65864;SHT30;52639;51.180;20.460;2023-08-21T00:44:04;16.87;89.82
65864;SHT30;52639;51.180;20.460;2023-08-21T00:48:07;16.73;90.17
65864;SHT30;52639;51.180;20.460;2023-08-21T00:52:12;16.73;90.17
65864;SHT30;52639;51.180;20.460;2023-08-21T00:56:18;16.60;90.18
65864;SHT30;52639;51.180;20.460;2023-08-21T01:00:23;16.60;90.30
65864;SHT30;52639;51.180;20.460;2023-08-21T01:04:26;16.62;90.22
65864;SHT30;52639;51.180;20.460;2023-08-21T01:08:35;16.63;90.28
65864;SHT30;52639;51.180;20.460;2023-08-21T01:12:48;16.63;90.09
65864;SHT30;52639;51.180;20.460;2023-08-21T01:16:55;16.59;90.13
65864;SHT30;52639;51.180;20.460;2023-08-21T01:20:58;16.56;90.17
65864;SHT30;52639;51.180;20.460;2023-08-21T01:25:03;16.55;90.16
65864;SHT30;52639;51.180;20.460;2023-08-21T01:29:07;16.51;90.25
65864;SHT30;52639;51.180;20.460;2023-08-21T01:33:12;16.48;90.29
65864;SHT30;52639;51.180;20.460;2023-08-21T01:37:17;16.43;90.52
65864;SHT30;52639;51.180;20.460;2023-08-21T01:41:24;16.39;90.51
65864;SHT30;52639;51.180;20.460;2023-08-21T01:45:27;16.29;90.77
65864;SHT30;52639;51.180;20.460;2023-08-21T01:49:30;16.33;90.78
65864;SHT30;52639;51.180;20.460;2023-08-21T01:53:33;16.33;90.74
65864;SHT30;52639;51.180;20.460;2023-08-21T01:57:37;16.28;90.60
65864;SHT30;52639;51.180;20.460;2023-08-21T02:01:40;16.28;90.63
65864;SHT30;52639;51.180;20.460;2023-08-21T02:05:43;16.26;90.76
65864;SHT30;52639;51.180;20.460;2023-08-21T02:09:45;16.25;90.92
65864;SHT30;52639;51.180;20.460;2023-08-21T02:13:50;16.23;90.84
65864;SHT30;52639;51.180;20.460;2023-08-21T02:17:53;16.21;91.07
65864;SHT30;52639;51.180;20.460;2023-08-21T02:21:55;16.19;90.99
65864;SHT30;52639;51.180;20.460;2023-08-21T02:25:58;16.15;90.88
65864;SHT30;52639;51.180;20.460;2023-08-21T02:30:03;16.08;90.90
65864;SHT30;52639;51.180;20.460;2023-08-21T02:34:06;16.15;91.47
65864;SHT30;52639;51.180;20.460;2023-08-21T02:38:08;16.06;91.12
65864;SHT30;52639;51.180;20.460;2023-08-21T02:42:11;16.02;91.16
65864;SHT30;52639;51.180;20.460;2023-08-21T02:46:16;16.04;90.97
65864;SHT30;52639;51.180;20.460;2023-08-21T02:50:19;16.00;91.34
65864;SHT30;52639;51.180;20.460;2023-08-21T02:54:23;15.95;91.22
65864;SHT30;52639;51.180;20.460;2023-08-21T02:58:26;15.91;91.16
65864;SHT30;52639;51.180;20.460;2023-08-21T03:02:32;15.94;91.16
65864;SHT30;52639;51.180;20.460;2023-08-21T03:06:36;15.97;91.40
65864;SHT30;52639;51.180;20.460;2023-08-21T03:10:38;15.91;91.16
65864;SHT30;52639;51.180;20.460;2023-08-21T03:14:41;15.82;91.18
65864;SHT30;52639;51.180;20.460;2023-08-21T03:18:58;15.77;91.29
65864;SHT30;52639;51.180;20.460;2023-08-21T03:23:04;15.78;91.27
65864;SHT30;52639;51.180;20.460;2023-08-21T03:27:07;15.71;91.28
65864;SHT30;52639;51.180;20.460;2023-08-21T03:31:10;15.72;91.41
65864;SHT30;52639;51.180;20.460;2023-08-21T03:35:14;15.77;91.27
65864;SHT30;52639;51.180;20.460;2023-08-21T03:39:17;15.77;91.26
65864;SHT30;52639;51.180;20.460;2023-08-21T03:43:19;15.80;91.20
65864;SHT30;52639;51.180;20.460;2023-08-21T03:47:22;15.81;91.16
65864;SHT30;52639;51.180;20.460;2023-08-21T03:51:27;15.92;91.06
65864;SHT30;52639;51.180;20.460;2023-08-21T03:55:30;15.94;90.96
65864;SHT30;52639;51.180;20.460;2023-08-21T03:59:33;15.97;91.31
65864;SHT30;52639;51.180;20.460;2023-08-21T04:03:36;16.02;91.23
65864;SHT30;52639;51.180;20.460;2023-08-21T04:07:40;16.12;90.94
65864;SHT30;52639;51.180;20.460;2023-08-21T04:11:46;16.28;90.68
65864;SHT30;52639;51.180;20.460;2023-08-21T04:15:49;16.38;90.84
65864;SHT30;52639;51.180;20.460;2023-08-21T04:19:52;16.53;90.35
65864;SHT30;52639;51.180;20.460;2023-08-21T04:23:56;16.73;90.19
65864;SHT30;52639;51.180;20.460;2023-08-21T04:27:59;16.89;90.04
65864;SHT30;52639;51.180;20.460;2023-08-21T04:32:02;17.16;89.57
65864;SHT30;52639;51.180;20.460;2023-08-21T04:36:05;17.44;89.10
65864;SHT30;52639;51.180;20.460;2023-08-21T04:40:11;17.61;89.23
65864;SHT30;52639;51.180;20.460;2023-08-21T04:44:14;17.91;88.82
65864;SHT30;52639;51.180;20.460;2023-08-21T04:48:16;18.45;87.71
65864;SHT30;52639;51.180;20.460;2023-08-21T04:52:22;19.01;86.92
65864;SHT30;52639;51.180;20.460;2023-08-21T04:56:26;19.45;86.24
65864;SHT30;52639;51.180;20.460;2023-08-21T05:00:29;20.98;83.28
65864;SHT30;52639;51.180;20.460;2023-08-21T05:04:32;24.32;75.39
65864;SHT30;52639;51.180;20.460;2023-08-21T05:08:35;26.27;71.74
65864;SHT30;52639;51.180;20.460;2023-08-21T05:12:39;27.58;69.98
65864;SHT30;52639;51.180;20.460;2023-08-21T05:16:41;28.56;68.76
65864;SHT30;52639;51.180;20.460;2023-08-21T05:20:44;29.19;68.02
65864;SHT30;52639;51.180;20.460;2023-08-21T05:24:47;29.31;67.81
65864;SHT30;52639;51.180;20.460;2023-08-21T05:28:51;30.81;64.77
65864;SHT30;52639;51.180;20.460;2023-08-21T05:32:54;32.53;61.56
65864;SHT30;52639;51.180;20.460;2023-08-21T05:36:57;32.88;61.57
65864;SHT30;52639;51.180;20.460;2023-08-21T05:41:00;29.66;69.81
65864;SHT30;52639;51.180;20.460;2023-08-21T05:45:06;27.62;74.18
65864;SHT30;52639;51.180;20.460;2023-08-21T05:49:09;26.67;76.21
65864;SHT30;52639;51.180;20.460;2023-08-21T05:53:12;28.54;70.38
65864;SHT30;52639;51.180;20.460;2023-08-21T05:57:15;29.42;68.46
65864;SHT30;52639;51.180;20.460;2023-08-21T06:01:19;28.47;70.52
65864;SHT30;52639;51.180;20.460;2023-08-21T06:05:22;27.31;73.19
65864;SHT30;52639;51.180;20.460;2023-08-21T06:09:25;25.93;76.26
65864;SHT30;52639;51.180;20.460;2023-08-21T06:13:30;25.55;76.53
65864;SHT30;52639;51.180;20.460;2023-08-21T06:17:35;25.66;75.32
65864;SHT30;52639;51.180;20.460;2023-08-21T06:21:37;25.55;75.03
65864;SHT30;52639;51.180;20.460;2023-08-21T06:25:42;25.35;74.97
65864;SHT30;52639;51.180;20.460;2023-08-21T06:29:46;24.49;76.91
65864;SHT30;52639;51.180;20.460;2023-08-21T06:33:50;23.95;78.03
65864;SHT30;52639;51.180;20.460;2023-08-21T06:37:53;23.66;78.47
65864;SHT30;52639;51.180;20.460;2023-08-21T06:41:57;23.21;79.42
65864;SHT30;52639;51.180;20.460;2023-08-21T06:46:01;22.76;79.66
65864;SHT30;52639;51.180;20.460;2023-08-21T06:50:06;22.46;79.50
65864;SHT30;52639;51.180;20.460;2023-08-21T06:54:09;22.20;79.63
65864;SHT30;52639;51.180;20.460;2023-08-21T06:58:12;22.09;79.58
65864;SHT30;52639;51.180;20.460;2023-08-21T07:02:15;21.95;79.85
65864;SHT30;52639;51.180;20.460;2023-08-21T07:06:19;21.62;80.75
65864;SHT30;52639;51.180;20.460;2023-08-21T07:10:22;21.34;81.64
65864;SHT30;52639;51.180;20.460;2023-08-21T07:14:25;21.05;81.91
65864;SHT30;52639;51.180;20.460;2023-08-21T07:18:28;20.91;81.88
65864;SHT30;52639;51.180;20.460;2023-08-21T07:22:32;20.79;82.38
65864;SHT30;52639;51.180;20.460;2023-08-21T07:26:39;20.74;82.25
65864;SHT30;52639;51.180;20.460;2023-08-21T07:30:42;20.64;82.62
65864;SHT30;52639;51.180;20.460;2023-08-21T07:34:45;20.50;83.25
65864;SHT30;52639;51.180;20.460;2023-08-21T07:38:49;20.43;83.22
65864;SHT30;52639;51.180;20.460;2023-08-21T07:42:52;20.37;83.32
65864;SHT30;52639;51.180;20.460;2023-08-21T07:46:55;20.34;83.65
65864;SHT30;52639;51.180;20.460;2023-08-21T07:50:58;20.36;83.65
65864;SHT30;52639;51.180;20.460;2023-08-21T07:55:03;20.30;84.08
65864;SHT30;52639;51.180;20.460;2023-08-21T07:59:06;20.47;83.86
65864;SHT30;52639;51.180;20.460;2023-08-21T08:03:10;20.67;83.51
65864;SHT30;52639;51.180;20.460;2023-08-21T08:07:15;20.88;83.39
65864;SHT30;52639;51.180;20.460;2023-08-21T08:11:20;21.32;82.69
65864;SHT30;52639;51.180;20.460;2023-08-21T08:15:23;21.62;82.22
65864;SHT30;52639;51.180;20.460;2023-08-21T08:19:25;21.96;81.85
65864;SHT30;52639;51.180;20.460;2023-08-21T08:23:28;22.40;81.39
65864;SHT30;52639;51.180;20.460;2023-08-21T08:27:33;22.81;80.88
65864;SHT30;52639;51.180;20.460;2023-08-21T08:31:36;23.49;79.84
65864;SHT30;52639;51.180;20.460;2023-08-21T08:35:40;24.10;79.09
65864;SHT30;52639;51.180;20.460;2023-08-21T08:39:43;24.76;78.11
65864;SHT30;52639;51.180;20.460;2023-08-21T08:43:47;24.92;78.47
65864;SHT30;52639;51.180;20.460;2023-08-21T08:47:51;24.59;79.60
65864;SHT30;52639;51.180;20.460;2023-08-21T08:51:54;24.64;79.70
65864;SHT30;52639;51.180;20.460;2023-08-21T08:55:57;25.03;79.04
65864;SHT30;52639;51.180;20.460;2023-08-21T09:00:02;24.66;79.96
65864;SHT30;52639;51.180;20.460;2023-08-21T09:04:05;24.57;80.05
65864;SHT30;52639;51.180;20.460;2023-08-21T09:08:12;24.87;79.57
65864;SHT30;52639;51.180;20.460;2023-08-21T09:12:17;24.86;79.52
65864;SHT30;52639;51.180;20.460;2023-08-21T09:16:23;25.54;78.16
65864;SHT30;52639;51.180;20.460;2023-08-21T09:20:26;26.05;77.36
65864;SHT30;52639;51.180;20.460;2023-08-21T09:24:29;26.40;76.79
65864;SHT30;52639;51.180;20.460;2023-08-21T09:28:32;26.44;76.86
65864;SHT30;52639;51.180;20.460;2023-08-21T09:32:52;26.40;77.17
65864;SHT30;52639;51.180;20.460;2023-08-21T09:36:55;26.27;78.12
65864;SHT30;52639;51.180;20.460;2023-08-21T09:40:59;26.56;77.62
65864;SHT30;52639;51.180;20.460;2023-08-21T09:45:02;26.25;78.12
65864;SHT30;52639;51.180;20.460;2023-08-21T09:49:06;25.74;79.44
65864;SHT30;52639;51.180;20.460;2023-08-21T09:53:10;25.84;79.13
65864;SHT30;52639;51.180;20.460;2023-08-21T09:57:14;25.90;78.67
65864;SHT30;52639;51.180;20.460;2023-08-21T10:01:19;26.22;77.78
65864;SHT30;52639;51.180;20.460;2023-08-21T10:05:25;26.43;77.31
65864;SHT30;52639;51.180;20.460;2023-08-21T10:09:28;25.95;78.50
65864;SHT30;52639;51.180;20.460;2023-08-21T10:13:32;25.75;78.84
65864;SHT30;52639;51.180;20.460;2023-08-21T10:17:36;26.00;78.30
65864;SHT30;52639;51.180;20.460;2023-08-21T10:21:40;26.44;77.29
65864;SHT30;52639;51.180;20.460;2023-08-21T10:25:43;26.33;77.83
65864;SHT30;52639;51.180;20.460;2023-08-21T10:29:56;26.67;76.89
65864;SHT30;52639;51.180;20.460;2023-08-21T10:34:00;26.51;77.30
65864;SHT30;52639;51.180;20.460;2023-08-21T10:38:10;27.05;76.05
65864;SHT30;52639;51.180;20.460;2023-08-21T10:42:13;27.51;75.23
65864;SHT30;52639;51.180;20.460;2023-08-21T10:46:16;27.55;75.10
65864;SHT30;52639;51.180;20.460;2023-08-21T10:50:19;27.46;75.44
65864;SHT30;52639;51.180;20.460;2023-08-21T10:54:24;27.61;74.81
65864;SHT30;52639;51.180;20.460;2023-08-21T10:58:26;27.98;74.16
65864;SHT30;52639;51.180;20.460;2023-08-21T11:02:31;27.21;76.03
65864;SHT30;52639;51.180;20.460;2023-08-21T11:06:34;27.45;75.04
65864;SHT30;52639;51.180;20.460;2023-08-21T11:10:39;27.61;74.27
65864;SHT30;52639;51.180;20.460;2023-08-21T11:14:43;27.24;74.87
65864;SHT30;52639;51.180;20.460;2023-08-21T11:18:45;28.05;73.02
65864;SHT30;52639;51.180;20.460;2023-08-21T11:22:48;27.99;73.37
65864;SHT30;52639;51.180;20.460;2023-08-21T11:26:53;28.09;73.24
65864;SHT30;52639;51.180;20.460;2023-08-21T11:30:57;27.68;74.63
65864;SHT30;52639;51.180;20.460;2023-08-21T11:35:00;27.31;74.99
65864;SHT30;52639;51.180;20.460;2023-08-21T11:39:04;27.30;74.33
65864;SHT30;52639;51.180;20.460;2023-08-21T11:43:11;27.20;73.96
65864;SHT30;52639;51.180;20.460;2023-08-21T11:47:15;27.30;73.55
65864;SHT30;52639;51.180;20.460;2023-08-21T11:51:18;27.56;72.81
65864;SHT30;52639;51.180;20.460;2023-08-21T11:55:22;27.96;71.82
65864;SHT30;52639;51.180;20.460;2023-08-21T11:59:26;27.76;72.47
65864;SHT30;52639;51.180;20.460;2023-08-21T12:03:35;27.65;73.25
65864;SHT30;52639;51.180;20.460;2023-08-21T12:07:39;27.86;72.65
65864;SHT30;52639;51.180;20.460;2023-08-21T12:11:42;28.14;71.78
65864;SHT30;52639;51.180;20.460;2023-08-21T12:15:47;28.05;72.10
65864;SHT30;52639;51.180;20.460;2023-08-21T12:19:50;28.14;71.95
65864;SHT30;52639;51.180;20.460;2023-08-21T12:23:53;27.79;73.04
65864;SHT30;52639;51.180;20.460;2023-08-21T12:27:56;27.41;73.93
65864;SHT30;52639;51.180;20.460;2023-08-21T12:32:06;27.30;73.28
65864;SHT30;52639;51.180;20.460;2023-08-21T12:36:09;27.08;73.35
65864;SHT30;52639;51.180;20.460;2023-08-21T12:40:12;26.95;72.81
65864;SHT30;52639;51.180;20.460;2023-08-21T12:44:15;26.95;72.80
65864;SHT30;52639;51.180;20.460;2023-08-21T12:48:19;26.46;73.56
65864;SHT30;52639;51.180;20.460;2023-08-21T12:52:22;26.03;74.19
65864;SHT30;52639;51.180;20.460;2023-08-21T12:56:25;26.09;73.95
65864;SHT30;52639;51.180;20.460;2023-08-21T13:00:28;26.17;73.52
65864;SHT30;52639;51.180;20.460;2023-08-21T13:04:35;26.16;72.85
65864;SHT30;52639;51.180;20.460;2023-08-21T13:08:38;26.47;71.94
65864;SHT30;52639;51.180;20.460;2023-08-21T13:12:40;26.91;71.14
65864;SHT30;52639;51.180;20.460;2023-08-21T13:16:43;26.76;71.07
65864;SHT30;52639;51.180;20.460;2023-08-21T13:20:48;26.59;71.26
65864;SHT30;52639;51.180;20.460;2023-08-21T13:24:51;26.32;71.50
65864;SHT30;52639;51.180;20.460;2023-08-21T13:28:54;25.93;71.53
65864;SHT30;52639;51.180;20.460;2023-08-21T13:32:58;25.85;71.56
65864;SHT30;52639;51.180;20.460;2023-08-21T13:37:04;26.02;70.63
65864;SHT30;52639;51.180;20.460;2023-08-21T13:41:06;25.86;70.42
65864;SHT30;52639;51.180;20.460;2023-08-21T13:45:11;26.15;70.23
65864;SHT30;52639;51.180;20.460;2023-08-21T13:49:14;26.19;70.24
65864;SHT30;52639;51.180;20.460;2023-08-21T13:53:18;26.26;70.27
65864;SHT30;52639;51.180;20.460;2023-08-21T13:57:21;26.02;70.00
65864;SHT30;52639;51.180;20.460;2023-08-21T14:01:24;26.03;69.28
65864;SHT30;52639;51.180;20.460;2023-08-21T14:05:27;26.03;69.17
65864;SHT30;52639;51.180;20.460;2023-08-21T14:09:34;26.10;68.19
65864;SHT30;52639;51.180;20.460;2023-08-21T14:13:37;25.89;68.55
65864;SHT30;52639;51.180;20.460;2023-08-21T14:17:41;26.49;67.28
65864;SHT30;52639;51.180;20.460;2023-08-21T14:21:43;26.54;67.45
65864;SHT30;52639;51.180;20.460;2023-08-21T14:25:50;26.56;67.85
65864;SHT30;52639;51.180;20.460;2023-08-21T14:29:53;26.74;66.94
65864;SHT30;52639;51.180;20.460;2023-08-21T14:33:57;26.94;66.21
65864;SHT30;52639;51.180;20.460;2023-08-21T14:38:00;26.63;66.85
65864;SHT30;52639;51.180;20.460;2023-08-21T14:42:05;26.35;68.08
65864;SHT30;52639;51.180;20.460;2023-08-21T14:46:08;26.65;66.45
65864;SHT30;52639;51.180;20.460;2023-08-21T14:50:11;26.76;66.33
65864;SHT30;52639;51.180;20.460;2023-08-21T14:54:14;26.91;65.47
65864;SHT30;52639;51.180;20.460;2023-08-21T14:58:19;26.88;65.79
65864;SHT30;52639;51.180;20.460;2023-08-21T15:02:22;26.50;66.98
65864;SHT30;52639;51.180;20.460;2023-08-21T15:06:26;26.15;68.69
65864;SHT30;52639;51.180;20.460;2023-08-21T15:10:29;26.25;68.23
65864;SHT30;52639;51.180;20.460;2023-08-21T15:14:34;26.17;68.35
65864;SHT30;52639;51.180;20.460;2023-08-21T15:18:37;25.93;69.07
65864;SHT30;52639;51.180;20.460;2023-08-21T15:22:39;25.46;70.21
65864;SHT30;52639;51.180;20.460;2023-08-21T15:26:43;25.37;70.46
65864;SHT30;52639;51.180;20.460;2023-08-21T15:30:48;25.27;70.58
65864;SHT30;52639;51.180;20.460;2023-08-21T15:34:50;25.49;69.32
65864;SHT30;52639;51.180;20.460;2023-08-21T15:38:54;25.61;68.09
65864;SHT30;52639;51.180;20.460;2023-08-21T15:42:59;25.38;69.04
65864;SHT30;52639;51.180;20.460;2023-08-21T15:47:05;25.12;70.13
65864;SHT30;52639;51.180;20.460;2023-08-21T15:51:09;24.86;71.03
65864;SHT30;52639;51.180;20.460;2023-08-21T15:55:12;24.43;72.16
65864;SHT30;52639;51.180;20.460;2023-08-21T15:59:15;24.25;72.21
65864;SHT30;52639;51.180;20.460;2023-08-21T16:03:22;24.09;72.19
65864;SHT30;52639;51.180;20.460;2023-08-21T16:07:25;24.01;72.24
65864;SHT30;52639;51.180;20.460;2023-08-21T16:11:28;23.93;71.74
65864;SHT30;52639;51.180;20.460;2023-08-21T16:15:31;23.72;72.30
65864;SHT30;52639;51.180;20.460;2023-08-21T16:19:36;23.41;73.24
65864;SHT30;52639;51.180;20.460;2023-08-21T16:23:40;23.08;73.73
65864;SHT30;52639;51.180;20.460;2023-08-21T16:27:43;23.03;73.34
65864;SHT30;52639;51.180;20.460;2023-08-21T16:31:46;23.01;73.13
65864;SHT30;52639;51.180;20.460;2023-08-21T16:35:53;22.78;73.69
65864;SHT30;52639;51.180;20.460;2023-08-21T16:39:56;22.60;74.25
65864;SHT30;52639;51.180;20.460;2023-08-21T16:44:00;22.36;74.90
65864;SHT30;52639;51.180;20.460;2023-08-21T16:48:04;22.16;75.20
65864;SHT30;52639;51.180;20.460;2023-08-21T16:52:08;22.02;75.43
65864;SHT30;52639;51.180;20.460;2023-08-21T16:56:11;21.79;75.92
65864;SHT30;52639;51.180;20.460;2023-08-21T17:00:14;21.52;76.59
65864;SHT30;52639;51.180;20.460;2023-08-21T17:04:18;21.48;76.64
65864;SHT30;52639;51.180;20.460;2023-08-21T17:08:22;21.39;76.92
65864;SHT30;52639;51.180;20.460;2023-08-21T17:12:25;21.32;77.12
65864;SHT30;52639;51.180;20.460;2023-08-21T17:16:29;21.20;77.50
65864;SHT30;52639;51.180;20.460;2023-08-21T17:20:33;21.01;77.97
65864;SHT30;52639;51.180;20.460;2023-08-21T17:24:37;20.91;78.23
65864;SHT30;52639;51.180;20.460;2023-08-21T17:28:41;20.73;78.71
65864;SHT30;52639;51.180;20.460;2023-08-21T17:32:45;20.42;79.29
65864;SHT30;52639;51.180;20.460;2023-08-21T17:36:49;20.12;79.92
65864;SHT30;52639;51.180;20.460;2023-08-21T17:40:56;19.93;80.34
65864;SHT30;52639;51.180;20.460;2023-08-21T17:44:59;19.81;80.45
65864;SHT30;52639;51.180;20.460;2023-08-21T17:49:05;19.61;80.94
65864;SHT30;52639;51.180;20.460;2023-08-21T17:53:09;19.50;81.37
65864;SHT30;52639;51.180;20.460;2023-08-21T17:57:15;19.38;81.75
65864;SHT30;52639;51.180;20.460;2023-08-21T18:01:18;19.39;81.73
65864;SHT30;52639;51.180;20.460;2023-08-21T18:05:22;19.41;82.02
65864;SHT30;52639;51.180;20.460;2023-08-21T18:09:25;19.43;82.29
65864;SHT30;52639;51.180;20.460;2023-08-21T18:13:30;19.32;82.58
65864;SHT30;52639;51.180;20.460;2023-08-21T18:17:33;19.24;82.96
65864;SHT30;52639;51.180;20.460;2023-08-21T18:21:38;19.13;83.36
65864;SHT30;52639;51.180;20.460;2023-08-21T18:25:43;18.99;83.64
65864;SHT30;52639;51.180;20.460;2023-08-21T18:29:47;18.76;84.14
65864;SHT30;52639;51.180;20.460;2023-08-21T18:33:53;18.60;84.53
65864;SHT30;52639;51.180;20.460;2023-08-21T18:37:56;18.42;84.88
65864;SHT30;52639;51.180;20.460;2023-08-21T18:42:00;18.30;85.09
65864;SHT30;52639;51.180;20.460;2023-08-21T18:46:06;18.28;85.18
65864;SHT30;52639;51.180;20.460;2023-08-21T18:50:10;18.12;85.36
65864;SHT30;52639;51.180;20.460;2023-08-21T18:54:13;18.10;85.55
65864;SHT30;52639;51.180;20.460;2023-08-21T18:58:19;18.09;85.65
65864;SHT30;52639;51.180;20.460;2023-08-21T19:02:25;17.94;86.13
65864;SHT30;52639;51.180;20.460;2023-08-21T19:06:30;17.92;86.11
65864;SHT30;52639;51.180;20.460;2023-08-21T19:10:35;17.99;86.49
65864;SHT30;52639;51.180;20.460;2023-08-21T19:14:39;17.86;86.52
65864;SHT30;52639;51.180;20.460;2023-08-21T19:18:46;17.82;86.59
65864;SHT30;52639;51.180;20.460;2023-08-21T19:22:50;17.77;86.81
65864;SHT30;52639;51.180;20.460;2023-08-21T19:26:56;17.68;86.96
65864;SHT30;52639;51.180;20.460;2023-08-21T19:31:06;17.60;87.12
65864;SHT30;52639;51.180;20.460;2023-08-21T19:35:12;17.55;87.56
65864;SHT30;52639;51.180;20.460;2023-08-21T19:39:18;17.51;87.95
65864;SHT30;52639;51.180;20.460;2023-08-21T19:43:23;17.47;87.94
65864;SHT30;52639;51.180;20.460;2023-08-21T19:47:28;17.37;87.84
65864;SHT30;52639;51.180;20.460;2023-08-21T19:51:34;17.27;87.95
65864;SHT30;52639;51.180;20.460;2023-08-21T19:55:39;17.20;88.12
65864;SHT30;52639;51.180;20.460;2023-08-21T19:59:44;17.11;88.24
65864;SHT30;52639;51.180;20.460;2023-08-21T20:03:50;17.07;88.41
65864;SHT30;52639;51.180;20.460;2023-08-21T20:07:55;16.93;88.60
65864;SHT30;52639;51.180;20.460;2023-08-21T20:11:59;16.86;88.71
65864;SHT30;52639;51.180;20.460;2023-08-21T20:16:03;16.79;88.83
65864;SHT30;52639;51.180;20.460;2023-08-21T20:20:11;16.72;88.91
65864;SHT30;52639;51.180;20.460;2023-08-21T20:24:17;16.66;89.06
65864;SHT30;52639;51.180;20.460;2023-08-21T20:28:23;16.63;89.24
65864;SHT30;52639;51.180;20.460;2023-08-21T20:32:27;16.55;89.26
65864;SHT30;52639;51.180;20.460;2023-08-21T20:36:32;16.49;89.54
65864;SHT30;52639;51.180;20.460;2023-08-21T20:40:38;16.43;89.62
65864;SHT30;52639;51.180;20.460;2023-08-21T20:44:42;16.36;89.67
65864;SHT30;52639;51.180;20.460;2023-08-21T20:48:47;16.29;89.66
65864;SHT30;52639;51.180;20.460;2023-08-21T20:52:52;16.23;90.07
65864;SHT30;52639;51.180;20.460;2023-08-21T20:56:58;16.18;90.08
65864;SHT30;52639;51.180;20.460;2023-08-21T21:01:02;16.13;90.06
65864;SHT30;52639;51.180;20.460;2023-08-21T21:05:06;16.09;90.06
65864;SHT30;52639;51.180;20.460;2023-08-21T21:09:09;16.04;89.94
65864;SHT30;52639;51.180;20.460;2023-08-21T21:13:13;16.00;89.93
65864;SHT30;52639;51.180;20.460;2023-08-21T21:17:16;15.94;89.94
65864;SHT30;52639;51.180;20.460;2023-08-21T21:21:19;15.85;90.07
65864;SHT30;52639;51.180;20.460;2023-08-21T21:25:22;15.77;90.22
65864;SHT30;52639;51.180;20.460;2023-08-21T21:29:26;15.72;90.33
65864;SHT30;52639;51.180;20.460;2023-08-21T21:33:29;15.62;90.32
65864;SHT30;52639;51.180;20.460;2023-08-21T21:37:32;15.47;90.45
65864;SHT30;52639;51.180;20.460;2023-08-21T21:41:36;15.44;90.59
65864;SHT30;52639;51.180;20.460;2023-08-21T21:45:40;15.40;90.74
65864;SHT30;52639;51.180;20.460;2023-08-21T21:49:43;15.41;90.68
65864;SHT30;52639;51.180;20.460;2023-08-21T21:53:46;15.37;90.73
65864;SHT30;52639;51.180;20.460;2023-08-21T21:57:49;15.33;90.75
65864;SHT30;52639;51.180;20.460;2023-08-21T22:01:53;15.27;90.76
65864;SHT30;52639;51.180;20.460;2023-08-21T22:05:56;15.17;90.78
65864;SHT30;52639;51.180;20.460;2023-08-21T22:10:00;15.07;91.00
65864;SHT30;52639;51.180;20.460;2023-08-21T22:14:03;15.03;91.03
65864;SHT30;52639;51.180;20.460;2023-08-21T22:18:08;15.00;91.06
65864;SHT30;52639;51.180;20.460;2023-08-21T22:22:11;14.99;91.40
65864;SHT30;52639;51.180;20.460;2023-08-21T22:26:14;14.95;91.50
65864;SHT30;52639;51.180;20.460;2023-08-21T22:30:16;14.96;91.30
65864;SHT30;52639;51.180;20.460;2023-08-21T22:34:21;14.90;91.13
65864;SHT30;52639;51.180;20.460;2023-08-21T22:38:23;14.86;91.08
65864;SHT30;52639;51.180;20.460;2023-08-21T22:42:26;14.79;91.19
65864;SHT30;52639;51.180;20.460;2023-08-21T22:46:29;14.66;91.26
65864;SHT30;52639;51.180;20.460;2023-08-21T22:50:36;14.62;91.45
65864;SHT30;52639;51.180;20.460;2023-08-21T22:54:39;14.62;91.96
65864;SHT30;52639;51.180;20.460;2023-08-21T22:58:42;14.53;91.71
65864;SHT30;52639;51.180;20.460;2023-08-21T23:02:45;14.52;91.98
65864;SHT30;52639;51.180;20.460;2023-08-21T23:06:49;14.51;91.61
65864;SHT30;52639;51.180;20.460;2023-08-21T23:10:53;14.49;91.59
65864;SHT30;52639;51.180;20.460;2023-08-21T23:14:55;14.48;91.49
65864;SHT30;52639;51.180;20.460;2023-08-21T23:18:59;14.42;91.47
65864;SHT30;52639;51.180;20.460;2023-08-21T23:23:05;14.39;91.47
65864;SHT30;52639;51.180;20.460;2023-08-21T23:27:07;14.32;91.53
65864;SHT30;52639;51.180;20.460;2023-08-21T23:31:10;14.33;91.56
65864;SHT30;52639;51.180;20.460;2023-08-21T23:35:13;14.28;91.55
65864;SHT30;52639;51.180;20.460;2023-08-21T23:39:17;14.21;91.72
65864;SHT30;52639;51.180;20.460;2023-08-21T23:43:20;14.17;91.86
65864;SHT30;52639;51.180;20.460;2023-08-21T23:47:22;14.04;91.85
65864;SHT30;52639;51.180;20.460;2023-08-21T23:51:25;14.07;92.27
65864;SHT30;52639;51.180;20.460;2023-08-21T23:55:30;14.11;92.26
65864;SHT30;52639;51.180;20.460;2023-08-21T23:59:33;14.09;92.48
